Time;durP1;ratioP1;P1;durP2;ratioP2;P2;SDS_P1;SDS_P2;PMS_P1;PMS_P2;Temp;Humidity;BMP_temperature;BMP_pressure;BME280_temperature;BME280_humidity;BME280_pressure;Samples;Min_cycle;Max_cycle;Signal;HPM_P1;HPM_P2
2022/07/13 00:00:58;;;;;;;0.13;0.00;;;;;;;19.10;100.00;101372.47;5054025;28;20048;-54
2022/07/13 00:03:23;;;;;;;1.02;0.13;;;;;;;19.09;100.00;101365.47;5058436;28;20025;-54
2022/07/13 00:05:49;;;;;;;0.00;0.00;;;;;;;19.09;100.00;101368.16;5066624;28;20028;-55
2022/07/13 00:08:14;;;;;;;0.45;0.25;;;;;;;19.09;100.00;101371.66;5053925;28;20037;-51
2022/07/13 00:10:39;;;;;;;0.20;0.17;;;;;;;19.13;100.00;101366.69;5051423;28;20063;-56
2022/07/13 00:13:05;;;;;;;0.88;0.20;;;;;;;19.11;100.00;101372.28;5048918;28;20211;-54
2022/07/13 00:15:30;;;;;;;0.30;0.10;;;;;;;19.08;100.00;101369.22;5051007;28;20036;-55
2022/07/13 00:17:56;;;;;;;0.65;0.20;;;;;;;19.05;100.00;101369.66;5052847;28;20422;-52
2022/07/13 00:20:21;;;;;;;1.23;0.00;;;;;;;19.03;100.00;101374.47;5053968;28;20025;-52
2022/07/13 00:22:46;;;;;;;2.08;0.10;;;;;;;19.04;100.00;101368.03;5061576;28;20028;-54
2022/07/13 00:25:12;;;;;;;0.00;0.00;;;;;;;19.01;100.00;101369.28;5053663;28;20086;-49
2022/07/13 00:27:37;;;;;;;0.08;0.00;;;;;;;19.00;100.00;101362.28;5056760;28;20049;-55
2022/07/13 00:30:03;;;;;;;0.10;0.10;;;;;;;19.00;100.00;101366.81;5053485;28;20410;-56
2022/07/13 00:32:28;;;;;;;0.08;0.05;;;;;;;19.02;100.00;101370.09;5059652;28;20469;-53
2022/07/13 00:34:54;;;;;;;0.10;0.10;;;;;;;19.02;100.00;101362.03;5053461;28;20043;-53
2022/07/13 00:37:19;;;;;;;0.38;0.10;;;;;;;19.00;100.00;101372.19;5051684;28;20110;-56
2022/07/13 00:39:44;;;;;;;0.20;0.20;;;;;;;18.95;100.00;101365.66;5057906;28;20024;-53
2022/07/13 00:42:10;;;;;;;0.95;0.13;;;;;;;18.88;100.00;101361.41;5055197;28;20036;-53
2022/07/13 00:44:35;;;;;;;0.73;0.10;;;;;;;18.84;100.00;101362.88;5046663;28;20044;-54
2022/07/13 00:47:01;;;;;;;0.10;0.05;;;;;;;18.84;100.00;101361.00;5056976;28;20418;-52
2022/07/13 00:49:27;;;;;;;0.98;0.10;;;;;;;18.86;100.00;101358.91;5054608;28;20095;-53
2022/07/13 00:51:52;;;;;;;0.50;0.10;;;;;;;18.86;100.00;101353.53;5056625;28;20036;-52
2022/07/13 00:54:28;;;;;;;2.60;0.20;;;;;;;18.83;100.00;101356.69;5054101;28;20035;-56
2022/07/13 00:56:54;;;;;;;0.43;0.20;;;;;;;18.83;100.00;101362.06;5052111;28;20061;-55
2022/07/13 00:59:20;;;;;;;0.52;0.10;;;;;;;18.83;100.00;101363.94;5056256;28;20079;-54
2022/07/13 01:01:46;;;;;;;0.13;0.10;;;;;;;18.83;100.00;101355.88;5055647;28;20103;-51
2022/07/13 01:04:11;;;;;;;0.68;0.30;;;;;;;18.84;100.00;101357.50;5052750;28;20060;-52
2022/07/13 01:06:37;;;;;;;2.60;0.25;;;;;;;18.80;100.00;101356.31;5063300;28;20093;-54
2022/07/13 01:09:03;;;;;;;0.10;0.10;;;;;;;18.75;100.00;101348.94;5063843;28;20074;-54
2022/07/13 01:11:29;;;;;;;0.52;0.30;;;;;;;18.70;100.00;101362.19;5061215;28;20444;-54
2022/07/13 01:13:55;;;;;;;2.22;0.13;;;;;;;18.67;100.00;101362.63;5057981;28;20036;-53
2022/07/13 01:16:22;;;;;;;1.65;0.20;;;;;;;18.65;100.00;101364.72;5065632;28;20067;-55
2022/07/13 01:18:48;;;;;;;0.25;0.13;;;;;;;18.64;100.00;101357.69;5062572;28;20033;-56
2022/07/13 01:21:15;;;;;;;1.55;0.40;;;;;;;18.61;100.00;101348.25;5064067;28;20029;-51
2022/07/13 01:23:41;;;;;;;0.43;0.28;;;;;;;18.63;100.00;101337.25;5055185;28;20169;-56
2022/07/13 01:26:07;;;;;;;0.40;0.32;;;;;;;18.60;100.00;101338.53;5059853;28;20397;-55
2022/07/13 01:28:33;;;;;;;1.75;0.10;;;;;;;18.58;100.00;101345.97;5062983;28;20040;-53
2022/07/13 01:30:58;;;;;;;0.95;0.10;;;;;;;18.56;100.00;101349.94;5056583;28;20061;-53
2022/07/13 01:33:24;;;;;;;0.17;0.10;;;;;;;18.50;100.00;101351.66;5068027;28;20389;-56
2022/07/13 01:35:49;;;;;;;0.20;0.20;;;;;;;18.43;100.00;101361.63;5054207;28;20357;-56
2022/07/13 01:38:16;;;;;;;0.32;0.20;;;;;;;18.35;100.00;101370.78;5055837;28;20049;-53
2022/07/13 01:40:44;;;;;;;0.40;0.20;;;;;;;18.28;100.00;101367.38;5051071;28;20155;-52
2022/07/13 01:43:09;;;;;;;0.20;0.10;;;;;;;18.17;100.00;101360.00;5068386;28;20024;-54
2022/07/13 01:45:35;;;;;;;1.02;0.43;;;;;;;18.06;100.00;101361.56;5064161;28;20033;-55
2022/07/13 01:48:00;;;;;;;0.85;0.40;;;;;;;17.97;100.00;101363.69;5064058;28;20051;-52
2022/07/13 01:50:27;;;;;;;3.13;0.32;;;;;;;17.90;100.00;101368.28;5048197;28;20042;-53
2022/07/13 01:52:53;;;;;;;2.88;0.28;;;;;;;17.83;100.00;101362.97;5059915;28;20385;-53
2022/07/13 01:55:18;;;;;;;2.17;0.30;;;;;;;17.74;100.00;101361.56;5060237;28;20040;-56
2022/07/13 01:57:44;;;;;;;0.63;0.30;;;;;;;17.64;100.00;101359.34;5049572;28;20073;-54
2022/07/13 02:00:14;;;;;;;0.40;0.30;;;;;;;17.56;100.00;101350.75;5044743;28;20024;-55
2022/07/13 02:02:40;;;;;;;1.13;0.50;;;;;;;17.44;100.00;101359.47;5059184;28;20077;-56
2022/07/13 02:05:06;;;;;;;0.50;0.10;;;;;;;17.33;100.00;101362.84;5063257;28;20028;-53
2022/07/13 02:07:32;;;;;;;0.28;0.28;;;;;;;17.23;100.00;101363.28;5058844;28;20021;-50
2022/07/13 02:09:57;;;;;;;0.30;0.10;;;;;;;17.16;100.00;101359.81;5063289;28;20028;-54
2022/07/13 02:12:23;;;;;;;0.68;0.28;;;;;;;17.07;100.00;101360.28;5057644;28;20035;-55
2022/07/13 02:14:48;;;;;;;0.55;0.43;;;;;;;16.97;100.00;101358.88;5062722;28;20161;-53
2022/07/13 02:17:14;;;;;;;0.77;0.20;;;;;;;16.89;100.00;101366.31;5060902;28;20078;-51
2022/07/13 02:19:39;;;;;;;0.47;0.30;;;;;;;16.81;100.00;101363.88;5055198;28;20152;-56
2022/07/13 02:22:04;;;;;;;3.03;0.32;;;;;;;16.75;100.00;101362.81;5050200;28;20039;-51
2022/07/13 02:24:30;;;;;;;0.85;0.82;;;;;;;16.67;100.00;101366.53;5057388;28;20453;-54
2022/07/13 02:26:55;;;;;;;3.80;0.60;;;;;;;16.60;100.00;101368.44;5061527;28;20032;-54
2022/07/13 02:29:21;;;;;;;0.30;0.30;;;;;;;16.52;100.00;101371.31;5026702;28;20044;-54
2022/07/13 02:31:46;;;;;;;0.80;0.13;;;;;;;16.47;100.00;101376.47;5059750;28;20127;-53
2022/07/13 02:34:11;;;;;;;5.45;0.43;;;;;;;16.40;100.00;101373.81;5048458;28;20570;-55
2022/07/13 02:36:37;;;;;;;0.50;0.50;;;;;;;16.29;100.00;101377.94;5054066;28;20032;-55
2022/07/13 02:39:03;;;;;;;0.20;0.20;;;;;;;16.20;100.00;101373.00;5048667;28;20152;-54
2022/07/13 02:41:28;;;;;;;0.40;0.32;;;;;;;16.10;100.00;101370.72;5059639;28;20040;-55
2022/07/13 02:43:53;;;;;;;0.22;0.10;;;;;;;15.99;100.00;101382.06;5063029;28;20025;-55
2022/07/13 02:46:19;;;;;;;2.30;0.20;;;;;;;15.91;100.00;101385.75;5055414;28;20062;-54
2022/07/13 02:48:44;;;;;;;1.05;0.35;;;;;;;15.89;100.00;101390.47;5058818;28;20069;-51
2022/07/13 02:51:09;;;;;;;0.52;0.30;;;;;;;15.83;100.00;101388.63;5050237;28;20029;-51
2022/07/13 02:53:35;;;;;;;0.88;0.25;;;;;;;15.77;100.00;101384.88;5048091;28;20071;-55
2022/07/13 02:56:00;;;;;;;0.57;0.32;;;;;;;15.69;100.00;101387.75;5059071;28;20035;-55
2022/07/13 02:58:25;;;;;;;0.85;0.40;;;;;;;15.67;100.00;101385.28;5046871;28;20449;-52
2022/07/13 03:00:52;;;;;;;0.55;0.40;;;;;;;15.64;100.00;101376.81;5062999;28;20433;-51
2022/07/13 03:03:18;;;;;;;0.50;0.50;;;;;;;15.56;100.00;101388.53;5051641;28;20045;-53
2022/07/13 03:05:43;;;;;;;2.40;1.00;;;;;;;15.45;100.00;101391.78;5054030;28;20043;-52
2022/07/13 03:08:08;;;;;;;0.75;0.52;;;;;;;15.38;100.00;101386.41;5067056;28;20036;-55
2022/07/13 03:10:34;;;;;;;1.58;0.38;;;;;;;15.28;100.00;101383.28;5045674;28;20104;-55
2022/07/13 03:12:59;;;;;;;0.88;0.43;;;;;;;15.23;100.00;101389.25;5055863;28;20369;-51
2022/07/13 03:15:25;;;;;;;1.75;0.40;;;;;;;15.18;100.00;101386.38;5047159;28;20024;-54
2022/07/13 03:17:50;;;;;;;0.32;0.20;;;;;;;15.15;100.00;101383.25;5056564;28;20032;-54
2022/07/13 03:20:16;;;;;;;1.10;0.38;;;;;;;15.08;100.00;101385.09;5050106;28;20029;-52
2022/07/13 03:22:41;;;;;;;0.10;0.10;;;;;;;15.03;100.00;101388.34;5060776;28;20119;-52
2022/07/13 03:25:07;;;;;;;0.80;0.63;;;;;;;14.97;100.00;101381.09;5053203;28;20430;-51
2022/07/13 03:27:33;;;;;;;1.30;0.38;;;;;;;14.87;100.00;101389.50;5055854;28;20031;-51
2022/07/13 03:29:58;;;;;;;1.20;0.20;;;;;;;14.76;100.00;101384.69;5052231;28;20083;-51
2022/07/13 03:32:23;;;;;;;0.88;0.30;;;;;;;14.69;100.00;101384.69;5062300;28;20048;-54
2022/07/13 03:34:49;;;;;;;0.75;0.30;;;;;;;14.67;100.00;101385.88;5048598;28;20107;-53
2022/07/13 03:37:14;;;;;;;1.65;0.20;;;;;;;14.62;100.00;101389.13;5060054;28;20359;-54
2022/07/13 03:39:40;;;;;;;0.68;0.30;;;;;;;14.57;100.00;101387.06;5056478;28;20024;-56
2022/07/13 03:42:06;;;;;;;0.45;0.40;;;;;;;14.55;100.00;101383.75;5053424;28;20044;-51
2022/07/13 03:44:31;;;;;;;0.50;0.50;;;;;;;14.54;100.00;101386.63;5058316;28;20032;-51
2022/07/13 03:46:57;;;;;;;1.60;1.20;;;;;;;14.51;100.00;101381.66;5065394;28;20036;-49
2022/07/13 03:49:22;;;;;;;0.30;0.20;;;;;;;14.50;100.00;101383.47;5044591;28;20056;-49
2022/07/13 03:51:48;;;;;;;0.98;0.77;;;;;;;14.49;100.00;101386.34;5056305;28;20060;-53
2022/07/13 03:54:14;;;;;;;1.60;0.38;;;;;;;14.48;100.00;101382.88;5046721;28;20496;-52
2022/07/13 03:56:39;;;;;;;1.00;0.80;;;;;;;14.47;100.00;101381.19;5053179;28;20033;-55
2022/07/13 03:59:05;;;;;;;0.47;0.22;;;;;;;14.45;100.00;101380.56;5059773;28;20035;-56
2022/07/13 04:01:31;;;;;;;3.67;0.32;;;;;;;14.51;100.00;101381.66;5065087;28;20025;-56
2022/07/13 04:03:58;;;;;;;1.40;0.30;;;;;;;14.56;100.00;101384.56;5062247;28;20504;-54
2022/07/13 04:06:24;;;;;;;0.63;0.55;;;;;;;14.61;100.00;101388.31;5060399;28;20029;-54
2022/07/13 04:08:49;;;;;;;0.88;0.60;;;;;;;14.55;100.00;101381.06;5052205;28;20452;-53
2022/07/13 04:11:15;;;;;;;2.28;0.60;;;;;;;14.58;100.00;101379.88;5056665;28;20064;-54
2022/07/13 04:13:40;;;;;;;3.08;1.17;;;;;;;14.60;100.00;101378.66;5050460;28;20044;-52
2022/07/13 04:16:06;;;;;;;0.80;0.22;;;;;;;14.59;100.00;101384.19;5058456;28;20032;-50
2022/07/13 04:18:32;;;;;;;0.40;0.30;;;;;;;14.58;100.00;101393.22;5061106;28;20157;-52
2022/07/13 04:20:58;;;;;;;4.30;0.30;;;;;;;14.55;100.00;101386.41;5052773;28;20077;-52
2022/07/13 04:23:23;;;;;;;1.05;0.30;;;;;;;14.54;100.00;101384.78;5068405;28;20040;-53
2022/07/13 04:25:48;;;;;;;0.60;0.55;;;;;;;14.55;100.00;101390.94;5063614;28;20036;-53
2022/07/13 04:28:14;;;;;;;5.07;0.70;;;;;;;14.55;100.00;101399.75;5053325;28;20025;-54
2022/07/13 04:30:39;;;;;;;0.38;0.35;;;;;;;14.60;100.00;101399.19;5063829;28;20036;-49
2022/07/13 04:33:05;;;;;;;2.10;0.40;;;;;;;14.61;100.00;101396.31;5052902;28;20024;-54
2022/07/13 04:35:30;;;;;;;0.30;0.30;;;;;;;14.61;100.00;101407.00;5062477;28;20373;-53
2022/07/13 04:37:55;;;;;;;0.90;0.55;;;;;;;14.61;100.00;101403.47;5062022;28;20162;-54
2022/07/13 04:40:21;;;;;;;1.75;0.43;;;;;;;14.59;100.00;101402.88;5060354;28;20135;-51
2022/07/13 04:42:46;;;;;;;0.65;0.65;;;;;;;14.58;100.00;101407.38;5053847;28;20047;-55
2022/07/13 04:45:11;;;;;;;0.50;0.30;;;;;;;14.55;100.00;101406.94;5059053;28;20060;-51
2022/07/13 04:47:38;;;;;;;1.05;0.50;;;;;;;14.53;100.00;101425.84;5060040;28;20466;-53
2022/07/13 04:50:04;;;;;;;2.08;0.20;;;;;;;14.59;100.00;101425.03;5060061;28;20032;-53
2022/07/13 04:52:30;;;;;;;1.95;0.35;;;;;;;14.71;100.00;101421.84;5058672;28;20036;-52
2022/07/13 04:54:55;;;;;;;1.48;0.57;;;;;;;14.81;100.00;101427.66;5052401;28;20574;-52
2022/07/13 04:57:20;;;;;;;0.80;0.10;;;;;;;14.88;100.00;101425.03;5055224;28;20385;-52
2022/07/13 04:59:46;;;;;;;0.17;0.17;;;;;;;14.95;100.00;101428.56;5055899;28;20033;-51
2022/07/13 05:02:11;;;;;;;1.35;0.20;;;;;;;15.02;100.00;101421.41;5050308;28;20433;-54
2022/07/13 05:04:36;;;;;;;1.80;0.32;;;;;;;15.12;100.00;101413.03;5050556;28;20068;-55
2022/07/13 05:07:02;;;;;;;1.17;0.77;;;;;;;15.24;100.00;101414.13;5071059;28;20033;-51
2022/07/13 05:09:27;;;;;;;0.32;0.25;;;;;;;15.35;100.00;101421.56;5054953;28;20478;-52
2022/07/13 05:11:52;;;;;;;7.10;0.52;;;;;;;15.47;100.00;101417.28;5051301;28;20033;-52
2022/07/13 05:14:18;;;;;;;1.25;0.30;;;;;;;15.57;100.00;101421.44;5051410;28;20523;-54
2022/07/13 05:16:43;;;;;;;0.32;0.20;;;;;;;15.66;100.00;101425.56;5049242;28;20067;-51
2022/07/13 05:19:09;;;;;;;0.82;0.52;;;;;;;15.75;100.00;101426.22;5057984;28;20032;-54
2022/07/13 05:21:34;;;;;;;0.88;0.38;;;;;;;15.81;100.00;101428.94;5050395;28;20029;-51
2022/07/13 05:23:59;;;;;;;3.10;1.20;;;;;;;15.95;100.00;101423.59;5054644;28;20084;-52
2022/07/13 05:26:25;;;;;;;0.52;0.30;;;;;;;16.18;100.00;101423.22;5050134;28;20390;-52
2022/07/13 05:28:50;;;;;;;0.82;0.35;;;;;;;16.45;100.00;101422.19;5047422;28;20107;-53
2022/07/13 05:31:16;;;;;;;0.15;0.15;;;;;;;16.73;100.00;101418.47;5033657;28;20056;-54
2022/07/13 05:33:41;;;;;;;1.23;0.68;;;;;;;16.94;100.00;101410.19;5053071;28;20028;-55
2022/07/13 05:36:07;;;;;;;0.40;0.30;;;;;;;17.08;100.00;101416.31;5048127;28;20032;-56
2022/07/13 05:38:32;;;;;;;0.20;0.10;;;;;;;17.17;100.00;101412.38;5048302;28;20040;-50
2022/07/13 05:40:57;;;;;;;2.20;0.45;;;;;;;17.26;100.00;101412.97;5048059;28;20025;-52
2022/07/13 05:43:24;;;;;;;0.90;0.73;;;;;;;17.38;100.00;101407.78;5050174;28;20362;-53
2022/07/13 05:45:50;;;;;;;2.92;0.47;;;;;;;17.46;100.00;101410.19;5053679;28;20017;-52
2022/07/13 05:48:15;;;;;;;0.85;0.20;;;;;;;17.51;100.00;101401.53;5050680;28;20028;-51
2022/07/13 05:50:41;;;;;;;0.50;0.25;;;;;;;17.70;100.00;101397.06;5038609;28;20066;-52
2022/07/13 05:53:06;;;;;;;0.38;0.20;;;;;;;17.67;100.00;101407.19;5048676;28;20417;-47
2022/07/13 05:55:32;;;;;;;1.67;0.47;;;;;;;17.75;100.00;101407.97;5064337;28;20045;-51
2022/07/13 05:57:57;;;;;;;2.10;0.70;;;;;;;17.75;100.00;101400.75;5050834;28;20056;-55
2022/07/13 06:00:22;;;;;;;3.70;0.40;;;;;;;17.70;100.00;101405.13;5044381;28;20029;-56
2022/07/13 06:02:47;;;;;;;2.50;0.32;;;;;;;17.61;100.00;101413.41;5053033;28;20025;-52
2022/07/13 06:05:13;;;;;;;0.57;0.32;;;;;;;17.58;100.00;101411.16;5052696;28;20032;-48
2022/07/13 06:07:38;;;;;;;4.55;0.90;;;;;;;17.63;100.00;101410.50;5048674;28;20024;-50
2022/07/13 06:10:05;;;;;;;1.20;0.50;;;;;;;17.71;100.00;101404.06;5064576;28;20070;-49
2022/07/13 06:12:30;;;;;;;0.63;0.63;;;;;;;17.74;100.00;101409.03;5056977;28;20107;-49
2022/07/13 06:14:56;;;;;;;3.65;0.60;;;;;;;17.80;100.00;101400.13;5046499;28;20039;-51
2022/07/13 06:17:22;;;;;;;1.05;0.20;;;;;;;17.87;100.00;101395.56;5050608;28;20351;-52
2022/07/13 06:19:49;;;;;;;5.50;0.30;;;;;;;17.95;100.00;101397.16;5049725;28;20052;-50
2022/07/13 06:22:15;;;;;;;0.68;0.30;;;;;;;18.04;100.00;101396.66;5054233;28;20039;-52
2022/07/13 06:24:41;;;;;;;4.78;0.55;;;;;;;18.09;100.00;101402.19;5055914;28;20033;-48
2022/07/13 06:27:07;;;;;;;2.03;0.28;;;;;;;18.23;100.00;101396.72;5053489;28;20039;-53
2022/07/13 06:29:32;;;;;;;1.20;0.30;;;;;;;18.39;100.00;101400.72;5058677;28;20036;-52
2022/07/13 06:31:57;;;;;;;0.98;0.20;;;;;;;18.44;100.00;101401.69;5061055;28;20496;-56
2022/07/13 06:34:23;;;;;;;1.92;0.10;;;;;;;18.40;100.00;101403.16;5041576;28;20064;-54
2022/07/13 06:36:48;;;;;;;2.85;0.40;;;;;;;18.38;100.00;101401.75;5053911;28;20025;-49
2022/07/13 06:39:13;;;;;;;0.88;0.30;;;;;;;18.44;100.00;101409.75;5045552;28;20040;-51
2022/07/13 06:41:39;;;;;;;1.52;0.30;;;;;;;18.53;100.00;101410.28;5043080;28;20028;-55
2022/07/13 06:44:05;;;;;;;0.85;0.40;;;;;;;18.64;100.00;101409.56;5056335;28;20025;-55
2022/07/13 06:46:30;;;;;;;0.52;0.15;;;;;;;18.83;100.00;101420.34;5048511;28;20107;-57
2022/07/13 06:48:56;;;;;;;0.90;0.30;;;;;;;19.10;100.00;101416.34;5041593;28;20131;-51
2022/07/13 06:51:21;;;;;;;5.03;0.85;;;;;;;19.33;100.00;101412.91;5026893;28;20063;-53
2022/07/13 06:53:47;;;;;;;2.60;0.32;;;;;;;19.48;100.00;101419.78;5047135;28;20028;-56
2022/07/13 06:56:12;;;;;;;3.47;0.25;;;;;;;19.61;100.00;101417.72;5045421;28;20079;-52
2022/07/13 06:58:38;;;;;;;1.45;0.20;;;;;;;19.61;100.00;101424.97;5048704;28;20037;-49
2022/07/13 07:01:04;;;;;;;0.90;0.35;;;;;;;19.54;100.00;101432.31;5051163;28;20081;-57
2022/07/13 07:03:29;;;;;;;0.60;0.20;;;;;;;19.50;100.00;101423.06;5051467;28;20028;-52
2022/07/13 07:05:55;;;;;;;1.08;0.25;;;;;;;19.51;100.00;101433.59;5049150;28;20143;-54
2022/07/13 07:08:21;;;;;;;0.98;0.13;;;;;;;19.57;100.00;101437.25;5031951;28;20067;-54
2022/07/13 07:10:47;;;;;;;0.45;0.38;;;;;;;19.65;100.00;101445.00;5048368;28;20041;-56
2022/07/13 07:13:12;;;;;;;0.45;0.10;;;;;;;19.64;100.00;101431.78;5054189;28;20036;-56
2022/07/13 07:15:38;;;;;;;2.10;0.47;;;;;;;19.60;100.00;101436.81;5045508;28;20402;-53
2022/07/13 07:18:03;;;;;;;0.47;0.20;;;;;;;19.49;100.00;101429.47;5054080;28;20032;-56
2022/07/13 07:20:29;;;;;;;1.25;0.43;;;;;;;19.27;100.00;101447.97;5053136;28;20105;-57
2022/07/13 07:22:55;;;;;;;0.40;0.40;;;;;;;19.12;100.00;101440.28;5053365;28;20125;-47
2022/07/13 07:25:21;;;;;;;1.70;1.10;;;;;;;19.03;100.00;101447.03;5054150;28;20100;-52
2022/07/13 07:27:47;;;;;;;2.22;0.43;;;;;;;19.18;100.00;101442.09;5057477;28;20020;-54
2022/07/13 07:30:13;;;;;;;1.25;0.63;;;;;;;19.25;100.00;101445.50;5060144;28;20291;-49
2022/07/13 07:32:39;;;;;;;1.00;0.47;;;;;;;19.51;100.00;101443.53;5057798;28;20421;-54
2022/07/13 07:35:06;;;;;;;1.27;0.57;;;;;;;19.77;100.00;101437.00;5058361;28;20105;-51
2022/07/13 07:37:31;;;;;;;1.27;0.70;;;;;;;19.84;100.00;101432.34;5056049;28;20048;-56
2022/07/13 07:39:57;;;;;;;2.28;1.15;;;;;;;19.89;100.00;101429.78;5055280;28;20021;-52
2022/07/13 07:42:22;;;;;;;6.43;0.60;;;;;;;19.97;100.00;101425.94;5053816;28;20382;-56
2022/07/13 07:44:48;;;;;;;4.35;0.65;;;;;;;20.21;100.00;101426.81;5054106;28;20406;-53
2022/07/13 07:47:13;;;;;;;4.32;0.60;;;;;;;20.23;100.00;101428.22;5056826;28;20028;-54
2022/07/13 07:49:39;;;;;;;1.48;0.40;;;;;;;20.24;100.00;101423.66;5061918;28;20044;-58
2022/07/13 07:52:04;;;;;;;0.77;0.65;;;;;;;20.42;100.00;101417.34;5058621;28;20342;-50
2022/07/13 07:54:30;;;;;;;0.68;0.57;;;;;;;20.46;100.00;101413.94;5052806;28;20024;-51
2022/07/13 07:56:55;;;;;;;1.77;1.15;;;;;;;20.57;100.00;101409.63;5058633;28;20025;-47
2022/07/13 07:59:21;;;;;;;3.38;0.82;;;;;;;20.54;100.00;101414.66;5056221;28;20052;-50
2022/07/13 08:01:46;;;;;;;2.28;0.60;;;;;;;20.71;100.00;101412.13;5064362;28;20033;-49
2022/07/13 08:04:11;;;;;;;1.10;0.45;;;;;;;20.75;100.00;101410.56;5054514;28;20517;-57
2022/07/13 08:06:38;;;;;;;2.72;0.80;;;;;;;20.80;100.00;101416.06;5060281;28;20024;-52
2022/07/13 08:09:03;;;;;;;0.80;0.57;;;;;;;20.85;100.00;101413.47;5046882;28;20545;-47
2022/07/13 08:11:29;;;;;;;1.02;0.60;;;;;;;20.90;100.00;101417.09;5055251;28;20048;-54
2022/07/13 08:13:54;;;;;;;0.93;0.50;;;;;;;20.95;100.00;101420.97;5063904;28;20364;-55
2022/07/13 08:16:20;;;;;;;1.65;0.30;;;;;;;20.73;100.00;101428.84;5064953;28;20396;-50
2022/07/13 08:18:46;;;;;;;7.47;0.70;;;;;;;20.60;100.00;101425.34;5061610;28;20450;-55
2022/07/13 08:21:11;;;;;;;1.38;0.75;;;;;;;20.56;100.00;101429.56;5059818;28;20044;-48
2022/07/13 08:23:53;;;;;;;1.63;1.05;;;;;;;20.30;100.00;101424.59;5056078;28;20028;-49
2022/07/13 08:26:22;;;;;;;3.60;0.70;;;;;;;20.05;100.00;101433.69;5056758;28;20029;-53
2022/07/13 08:28:48;;;;;;;5.55;1.05;;;;;;;20.17;100.00;101431.84;5053102;28;20100;-55
2022/07/13 08:31:14;;;;;;;2.03;0.90;;;;;;;20.16;100.00;101440.13;5059267;28;20457;-56
2022/07/13 08:39:10;;;;;;;2.53;0.50;;;;;;;21.17;100.00;101435.47;5058630;28;20040;-54
2022/07/13 08:41:36;;;;;;;1.40;1.23;;;;;;;21.43;100.00;101422.53;5052726;28;20029;-52
2022/07/13 08:44:02;;;;;;;1.35;0.80;;;;;;;21.53;100.00;101426.22;5056065;28;20604;-49
2022/07/13 08:46:28;;;;;;;4.97;1.05;;;;;;;21.35;100.00;101431.78;5065369;28;20032;-49
2022/07/13 08:48:55;;;;;;;7.72;0.93;;;;;;;21.43;100.00;101434.13;5056170;28;20430;-48
2022/07/13 08:51:22;;;;;;;1.98;1.35;;;;;;;21.44;100.00;101434.94;5059493;28;20041;-48
2022/07/13 08:53:49;;;;;;;2.05;1.42;;;;;;;21.51;100.00;101430.22;5048169;28;20105;-51
2022/07/13 08:56:14;;;;;;;1.00;0.52;;;;;;;21.65;100.00;101439.66;5054599;28;20037;-49
2022/07/13 08:58:40;;;;;;;1.17;1.08;;;;;;;21.64;100.00;101442.63;5038478;28;20044;-46
2022/07/13 09:01:08;;;;;;;0.90;0.77;;;;;;;21.73;100.00;101446.53;5059036;28;20078;-55
2022/07/13 09:03:35;;;;;;;7.32;1.15;;;;;;;21.85;100.00;101446.50;5061526;28;20032;-48
2022/07/13 09:06:00;;;;;;;0.65;0.40;;;;;;;21.74;100.00;101442.81;5053330;28;20029;-49
2022/07/13 09:08:26;;;;;;;0.70;0.60;;;;;;;21.88;100.00;101444.13;5054179;28;20023;-47
2022/07/13 09:10:57;;;;;;;1.42;1.27;;;;;;;21.64;100.00;101451.53;5054762;28;20024;-53
2022/07/13 09:13:36;;;;;;;1.27;1.02;;;;;;;21.68;100.00;101457.25;5061253;28;20032;-47
2022/07/13 09:16:21;;;;;;;3.00;1.60;;;;;;;21.97;100.00;101449.97;5062991;28;20111;-55
2022/07/13 09:18:53;;;;;;;1.23;0.90;;;;;;;21.73;100.00;101447.34;5055186;28;20439;-52
2022/07/13 09:21:20;;;;;;;0.85;0.73;;;;;;;21.95;100.00;101458.28;5056668;28;20048;-54
2022/07/13 09:23:49;;;;;;;1.17;1.10;;;;;;;21.87;100.00;101449.78;5051441;28;20024;-51
2022/07/13 09:26:16;;;;;;;1.67;0.85;;;;;;;22.01;100.00;101453.81;5052088;28;20178;-51
2022/07/13 09:28:47;;;;;;;1.27;0.85;;;;;;;22.25;100.00;101456.38;5036351;28;20045;-52
2022/07/13 09:31:13;;;;;;;4.30;1.85;;;;;;;22.28;100.00;101455.88;5060921;28;20035;-52
2022/07/13 09:33:40;;;;;;;8.02;1.40;;;;;;;22.63;100.00;101448.34;5054067;28;20127;-53
2022/07/13 09:36:16;;;;;;;4.50;1.35;;;;;;;22.61;100.00;101452.34;5055482;28;20040;-49
2022/07/13 09:38:46;;;;;;;38.58;6.93;;;;;;;22.58;100.00;101447.44;5063760;28;20037;-51
2022/07/13 09:41:20;;;;;;;7.30;2.08;;;;;;;22.82;100.00;101437.22;5051172;28;20053;-54
2022/07/13 09:47:04;;;;;;;70.70;7.88;;;;;;;23.80;100.00;101440.09;5065695;28;20063;-50
2022/07/13 09:49:31;;;;;;;14.60;3.20;;;;;;;24.12;100.00;101440.09;5049576;28;20029;-54
2022/07/13 09:51:58;;;;;;;8.38;1.30;;;;;;;24.30;100.00;101438.06;5059333;28;20037;-51
2022/07/13 09:54:29;;;;;;;2.88;1.60;;;;;;;24.29;100.00;101439.13;5057080;28;20143;-49
2022/07/13 09:57:02;;;;;;;2.70;1.38;;;;;;;24.03;100.00;101433.50;5061378;28;20089;-47
2022/07/13 09:59:28;;;;;;;2.53;1.13;;;;;;;24.10;100.00;101433.28;5059928;28;20524;-57
2022/07/13 10:01:54;;;;;;;2.47;1.20;;;;;;;24.49;100.00;101436.59;5054991;28;20123;-55
2022/07/13 10:04:20;;;;;;;1.98;0.90;;;;;;;24.59;100.00;101430.44;5064806;28;20111;-50
2022/07/13 10:06:46;;;;;;;2.30;1.30;;;;;;;24.28;100.00;101438.31;5053358;28;20411;-49
2022/07/13 10:09:11;;;;;;;6.28;1.40;;;;;;;23.87;100.00;101448.78;5059212;28;20100;-48
2022/07/13 10:11:37;;;;;;;4.60;1.20;;;;;;;23.29;100.00;101456.56;5055841;28;20032;-46
2022/07/13 10:14:06;;;;;;;1.55;1.45;;;;;;;23.12;100.00;101455.78;5055270;28;20028;-50
2022/07/13 10:16:32;;;;;;;1.27;0.43;;;;;;;23.45;100.00;101448.63;5065857;28;20499;-51
2022/07/13 10:19:03;;;;;;;2.45;0.77;;;;;;;24.04;100.00;101461.44;5051270;28;20035;-52
2022/07/13 10:21:52;;;;;;;;;;;;;;;24.19;100.00;101452.59;5058753;28;20485;-49
2022/07/13 10:24:18;;;;;;;1.02;0.63;;;;;;;24.28;100.00;101461.88;5049116;28;19920;-51
2022/07/13 10:26:47;;;;;;;0.98;0.43;;;;;;;24.53;100.00;101464.81;5056455;28;20491;-49
2022/07/13 10:29:15;;;;;;;1.85;0.55;;;;;;;24.35;100.00;101466.00;5055236;28;20147;-47
2022/07/13 10:31:41;;;;;;;1.30;0.57;;;;;;;24.17;100.00;101459.09;5058066;28;20036;-58
2022/07/13 10:34:10;;;;;;;17.40;1.77;;;;;;;24.35;100.00;101457.88;5057492;28;20028;-50
2022/07/13 10:36:56;;;;;;;7.18;1.40;;;;;;;24.12;100.00;101467.19;5062545;28;20025;-53
2022/07/13 10:39:25;;;;;;;17.92;2.63;;;;;;;24.23;100.00;101467.25;5056002;28;20120;-54
2022/07/13 10:42:03;;;;;;;3.35;0.45;;;;;;;24.13;100.00;101466.09;5065582;28;20028;-54
2022/07/13 10:44:32;;;;;;;1.13;0.30;;;;;;;23.72;100.00;101473.84;5056926;28;20021;-49
2022/07/13 10:46:57;;;;;;;1.45;1.25;;;;;;;23.60;100.00;101478.56;5065740;28;20025;-54
2022/07/13 10:49:50;;;;;;;2.17;0.52;;;;;;;23.82;100.00;101469.59;5050062;28;20078;-49
2022/07/13 10:52:21;;;;;;;0.70;0.70;;;;;;;23.94;100.00;101464.84;5057883;28;20043;-55
2022/07/13 10:55:11;;;;;;;1.20;0.55;;;;;;;23.98;100.00;101478.69;5053801;28;20085;-53
2022/07/13 10:57:39;;;;;;;2.65;0.65;;;;;;;23.80;100.00;101471.75;5051906;28;20033;-56
2022/07/13 11:00:24;;;;;;;1.33;0.32;;;;;;;23.75;100.00;101477.09;5050472;28;20071;-60
2022/07/13 11:02:55;;;;;;;1.27;0.30;;;;;;;24.38;100.00;101475.53;5046682;28;20037;-52
2022/07/13 11:05:25;;;;;;;0.32;0.32;;;;;;;24.46;100.00;101469.66;5045607;28;20063;-52
2022/07/13 11:07:52;;;;;;;6.10;0.25;;;;;;;24.47;100.00;101470.47;5049876;28;20382;-51
2022/07/13 11:10:26;;;;;;;0.68;0.15;;;;;;;24.78;100.00;101466.88;5048096;28;20391;-58
2022/07/13 11:13:09;;;;;;;1.35;0.30;;;;;;;25.17;100.00;101468.44;5049010;28;20419;-55
2022/07/13 11:15:42;;;;;;;0.93;0.15;;;;;;;24.89;100.00;101469.66;5058964;28;20370;-48
2022/07/13 11:18:22;;;;;;;1.23;0.10;;;;;;;24.99;100.00;101458.88;5065802;28;20101;-52
2022/07/13 11:20:58;;;;;;;0.65;0.47;;;;;;;25.32;100.00;101456.84;5047386;28;20124;-56
2022/07/13 11:26:34;;;;;;;10.40;1.05;;;;;;;26.00;100.00;101449.41;5053950;28;20128;-48